Time;durP1;ratioP1;P1;durP2;ratioP2;P2;SDS_P1;SDS_P2;PMS_P1;PMS_P2;Temp;Humidity;BMP_temperature;BMP_pressure;BME280_temperature;BME280_humidity;BME280_pressure;Samples;Min_cycle;Max_cycle;Signal;HPM_P1;HPM_P2
2022/04/30 00:00:09;;;;;;;;;;;;;;;8.09;83.81;98075.05;109776;1251;60141;-68
2022/04/30 00:03:00;;;;;;;;;;;;;;;8.08;83.74;98077.86;109595;1252;59623;-69
2022/04/30 00:05:32;;;;;;;;;;;;;;;8.07;85.64;98080.17;109736;1250;71632;-67
2022/04/30 00:08:06;;;;;;;;;;;;;;;8.04;85.96;98084.87;109807;1249;68674;-67
2022/04/30 00:10:37;;;;;;;;;;;;;;;8.02;85.77;98083.94;109624;1252;68567;-68
2022/04/30 00:13:08;;;;;;;;;;;;;;;8.01;86.02;98081.38;109622;1251;59766;-70
2022/04/30 00:15:39;;;;;;;;;;;;;;;8.00;85.33;98080.75;109849;1250;59697;-67
2022/04/30 00:18:11;;;;;;;;;;;;;;;7.98;84.66;98084.13;109722;1252;70945;-70
2022/04/30 00:20:45;;;;;;;;;;;;;;;7.96;84.52;98085.65;109739;1251;68565;-69
2022/04/30 00:23:21;;;;;;;;;;;;;;;7.93;84.07;98082.83;109516;1252;69483;-68
2022/04/30 00:25:53;;;;;;;;;;;;;;;7.88;84.01;98080.65;109690;1251;59795;-65
2022/04/30 00:28:23;;;;;;;;;;;;;;;7.83;84.43;98074.33;109734;1251;59651;-66
2022/04/30 00:30:53;;;;;;;;;;;;;;;7.80;84.09;98075.66;109736;1252;70766;-68
2022/04/30 00:33:23;;;;;;;;;;;;;;;7.79;83.34;98075.89;109803;1250;68492;-66
2022/04/30 00:35:52;;;;;;;;;;;;;;;7.78;84.95;98077.71;109705;1250;69340;-68
2022/04/30 00:38:21;;;;;;;;;;;;;;;7.78;86.52;98078.58;109642;1250;59770;-67
2022/04/30 00:40:51;;;;;;;;;;;;;;;7.78;87.03;98076.66;109782;1250;59732;-68
2022/04/30 00:43:21;;;;;;;;;;;;;;;7.80;87.17;98073.98;109878;1250;71187;-67
2022/04/30 00:45:51;;;;;;;;;;;;;;;7.79;87.08;98070.54;109753;1250;68604;-68
2022/04/30 00:48:20;;;;;;;;;;;;;;;7.78;86.44;98066.59;109817;1250;68875;-68
2022/04/30 00:50:51;;;;;;;;;;;;;;;7.76;85.66;98065.30;109543;1252;59751;-67
2022/04/30 00:53:22;;;;;;;;;;;;;;;7.74;85.63;98063.70;109762;1250;59698;-67
2022/04/30 00:55:51;;;;;;;;;;;;;;;7.72;84.44;98062.05;109810;1250;70640;-68
2022/04/30 00:58:22;;;;;;;;;;;;;;;7.70;85.15;98066.48;109764;1250;67805;-68
2022/04/30 01:00:52;;;;;;;;;;;;;;;7.68;86.76;98064.84;109831;1250;69342;-70
2022/04/30 01:03:29;;;;;;;;;;;;;;;7.66;86.61;98062.16;109968;1250;59748;-72
2022/04/30 01:06:07;;;;;;;;;;;;;;;7.63;85.46;98060.93;109945;1250;59679;-69
2022/04/30 01:08:37;;;;;;;;;;;;;;;7.60;85.76;98062.28;109866;1250;71674;-67
2022/04/30 01:11:06;;;;;;;;;;;;;;;7.59;86.47;98061.33;109915;1250;67780;-67
2022/04/30 01:13:37;;;;;;;;;;;;;;;7.59;85.92;98061.67;109767;1250;68781;-68
2022/04/30 01:16:07;;;;;;;;;;;;;;;7.58;85.96;98058.59;109876;1250;59762;-67
2022/04/30 01:18:37;;;;;;;;;;;;;;;7.57;87.00;98060.52;109804;1250;59667;-68
2022/04/30 01:21:13;;;;;;;;;;;;;;;7.54;87.15;98056.70;109720;1250;71380;-67
2022/04/30 01:23:44;;;;;;;;;;;;;;;7.50;87.16;98056.20;109753;1250;68465;-67
2022/04/30 01:26:14;;;;;;;;;;;;;;;7.48;87.21;98052.14;109755;1250;69474;-70
2022/04/30 01:28:45;;;;;;;;;;;;;;;7.46;86.45;98049.69;109711;1251;59728;-69
2022/04/30 01:39:39;;;;;;;;;;;;;;;7.34;88.65;98049.03;109545;1252;69461;-66
2022/04/30 01:42:11;;;;;;;;;;;;;;;7.28;87.93;98054.17;109827;1250;60096;-67
2022/04/30 01:44:42;;;;;;;;;;;;;;;7.25;87.56;98052.78;109787;1250;59744;-68
2022/04/30 01:47:12;;;;;;;;;;;;;;;7.22;88.05;98051.89;109812;1250;71492;-66
2022/04/30 01:49:42;;;;;;;;;;;;;;;7.21;88.22;98050.55;109821;1250;68615;-68
2022/04/30 01:52:13;;;;;;;;;;;;;;;7.19;88.55;98047.88;109669;1250;68474;-68
2022/04/30 01:54:43;;;;;;;;;;;;;;;7.18;88.02;98041.52;109708;1252;59762;-67
2022/04/30 01:57:22;;;;;;;;;;;;;;;7.15;87.39;98040.23;109735;1251;59719;-67
2022/04/30 01:59:54;;;;;;;;;;;;;;;7.10;86.58;98040.14;109678;1250;70821;-68
2022/04/30 02:02:27;;;;;;;;;;;;;;;7.03;87.29;98038.60;109640;1252;67435;-68
2022/04/30 02:04:59;;;;;;;;;;;;;;;6.97;86.68;98034.56;109705;1250;69493;-67
2022/04/30 02:07:30;;;;;;;;;;;;;;;6.92;87.24;98033.95;109843;1250;59723;-67
2022/04/30 02:10:01;;;;;;;;;;;;;;;6.87;87.80;98031.02;109875;1250;59637;-67
2022/04/30 02:12:32;;;;;;;;;;;;;;;6.84;86.95;98029.79;109843;1250;70782;-67
2022/04/30 02:15:04;;;;;;;;;;;;;;;6.81;86.70;98029.05;109724;1250;68061;-68
2022/04/30 02:17:38;;;;;;;;;;;;;;;6.79;86.69;98022.92;109693;1250;67998;-69
2022/04/30 02:22:58;;;;;;;;;;;;;;;6.76;87.98;98018.41;109823;1250;59637;-68
2022/04/30 02:25:29;;;;;;;;;;;;;;;6.75;88.02;98016.55;109815;1250;69809;-68
2022/04/30 02:28:01;;;;;;;;;;;;;;;6.73;88.18;98014.89;109847;1250;68393;-68
2022/04/30 02:30:35;;;;;;;;;;;;;;;6.73;88.81;98013.52;109715;1252;69440;-68
2022/04/30 02:33:07;;;;;;;;;;;;;;;6.73;89.57;98009.38;109795;1250;60096;-68
2022/04/30 02:35:39;;;;;;;;;;;;;;;6.72;89.21;98004.90;109841;1250;59694;-67
2022/04/30 02:38:09;;;;;;;;;;;;;;;6.73;89.65;98009.89;109711;1250;71535;-68
2022/04/30 02:40:41;;;;;;;;;;;;;;;6.74;90.13;98006.02;109809;1249;68470;-68
2022/04/30 02:43:16;;;;;;;;;;;;;;;6.75;89.46;98006.01;109743;1251;68654;-68
2022/04/30 02:45:47;;;;;;;;;;;;;;;6.76;88.87;98005.78;109774;1250;59671;-67
2022/04/30 02:48:17;;;;;;;;;;;;;;;6.78;89.88;98006.52;109694;1250;59700;-69
2022/04/30 02:50:48;;;;;;;;;;;;;;;6.80;90.66;98007.33;109885;1250;71624;-70
2022/04/30 02:53:19;;;;;;;;;;;;;;;6.81;91.23;98005.14;109828;1250;68614;-68
2022/04/30 02:55:50;;;;;;;;;;;;;;;6.82;90.39;98001.63;109875;1250;68616;-69
2022/04/30 03:01:08;;;;;;;;;;;;;;;6.81;88.79;98004.81;109632;1250;59763;-67
2022/04/30 03:03:55;;;;;;;;;;;;;;;6.79;88.78;98003.00;109814;1250;71221;-69
2022/04/30 03:06:25;;;;;;;;;;;;;;;6.76;89.23;98004.02;109719;1249;67794;-69
2022/04/30 03:08:55;;;;;;;;;;;;;;;6.75;88.23;98004.79;109797;1249;69408;-69
2022/04/30 03:11:25;;;;;;;;;;;;;;;6.72;88.09;98005.42;109819;1251;59816;-68
2022/04/30 03:13:56;;;;;;;;;;;;;;;6.70;88.48;98007.27;109830;1250;59696;-68
2022/04/30 03:22:01;;;;;;;;;;;;;;;6.64;88.60;98010.29;109593;1250;69379;-68
2022/04/30 03:24:31;;;;;;;;;;;;;;;6.63;87.75;98012.09;109797;1250;60166;-69
2022/04/30 03:27:01;;;;;;;;;;;;;;;6.61;87.74;98009.95;109771;1250;59727;-68
2022/04/30 03:29:31;;;;;;;;;;;;;;;6.59;86.69;98011.41;109727;1252;69855;-69
2022/04/30 03:32:02;;;;;;;;;;;;;;;6.56;87.43;98016.77;109846;1250;68802;-69
2022/04/30 03:34:32;;;;;;;;;;;;;;;6.52;88.28;98020.40;109591;1250;69649;-67
2022/04/30 03:37:02;;;;;;;;;;;;;;;6.48;87.84;98019.90;109754;1250;59698;-67
2022/04/30 03:39:32;;;;;;;;;;;;;;;6.44;87.79;98023.71;109793;1250;59705;-69
2022/04/30 03:42:02;;;;;;;;;;;;;;;6.39;87.25;98023.94;109692;1250;71650;-68
2022/04/30 03:44:32;;;;;;;;;;;;;;;6.35;87.29;98024.15;109597;1253;67622;-68
2022/04/30 03:47:01;;;;;;;;;;;;;;;6.31;87.98;98026.92;109556;1252;69473;-67
2022/04/30 03:49:31;;;;;;;;;;;;;;;6.27;89.28;98032.11;109568;1252;59695;-67
2022/04/30 03:52:00;;;;;;;;;;;;;;;6.23;90.29;98032.48;109553;1252;59691;-68
2022/04/30 03:54:30;;;;;;;;;;;;;;;6.19;90.38;98037.33;109689;1250;71560;-68
2022/04/30 03:56:59;;;;;;;;;;;;;;;6.14;90.48;98039.63;109834;1250;68085;-69
2022/04/30 03:59:29;;;;;;;;;;;;;;;6.08;90.32;98039.73;109793;1250;69220;-66
2022/04/30 04:01:59;;;;;;;;;;;;;;;6.00;90.00;98044.94;109779;1250;59774;-67
2022/04/30 04:04:29;;;;;;;;;;;;;;;5.93;89.46;98046.63;109701;1249;59697;-68
2022/04/30 04:06:58;;;;;;;;;;;;;;;5.87;89.43;98044.42;109692;1252;71154;-68
2022/04/30 04:09:28;;;;;;;;;;;;;;;5.83;89.34;98047.36;109801;1250;68723;-68
2022/04/30 04:11:57;;;;;;;;;;;;;;;5.82;89.18;98048.10;109853;1250;69435;-67
2022/04/30 04:20:03;;;;;;;;;;;;;;;5.84;88.50;98050.94;109728;1249;70745;-69
2022/04/30 04:22:33;;;;;;;;;;;;;;;5.79;88.71;98052.21;109670;1250;68050;-67
2022/04/30 04:27:54;;;;;;;;;;;;;;;5.75;89.43;98049.44;109594;1251;59799;-69
2022/04/30 04:30:25;;;;;;;;;;;;;;;5.77;89.26;98047.47;109582;1252;59779;-67
2022/04/30 04:32:55;;;;;;;;;;;;;;;5.81;88.49;98046.92;109678;1250;71490;-67
2022/04/30 04:35:24;;;;;;;;;;;;;;;5.90;87.97;98051.07;109677;1250;68740;-68
2022/04/30 04:37:54;;;;;;;;;;;;;;;6.09;87.73;98049.39;109573;1251;68705;-68
2022/04/30 04:40:23;;;;;;;;;;;;;;;6.39;89.34;98051.14;109768;1249;59687;-67
2022/04/30 04:42:52;;;;;;;;;;;;;;;6.77;88.64;98047.97;109632;1251;59647;-68
2022/04/30 04:45:23;;;;;;;;;;;;;;;7.12;86.12;98052.71;109809;1250;70794;-67
2022/04/30 04:47:54;;;;;;;;;;;;;;;7.44;84.09;98053.38;109752;1250;68189;-67
2022/04/30 04:50:23;;;;;;;;;;;;;;;7.79;83.33;98052.47;109760;1250;68506;-67
2022/04/30 04:52:53;;;;;;;;;;;;;;;8.11;81.75;98053.94;109745;1250;59699;-68
2022/04/30 04:55:22;;;;;;;;;;;;;;;8.53;82.14;98049.98;109646;1251;59722;-69
2022/04/30 04:57:51;;;;;;;;;;;;;;;9.00;82.81;98046.70;109660;1252;71646;-68
2022/04/30 05:00:21;;;;;;;;;;;;;;;9.48;83.57;98051.11;109842;1250;68008;-70
2022/04/30 05:02:53;;;;;;;;;;;;;;;9.96;83.93;98056.74;109645;1251;69588;-69
2022/04/30 05:05:22;;;;;;;;;;;;;;;10.48;84.53;98052.20;109779;1250;59713;-69
2022/04/30 05:07:51;;;;;;;;;;;;;;;10.95;80.08;98056.08;109791;1250;59637;-70
2022/04/30 05:10:20;;;;;;;;;;;;;;;11.22;72.86;98055.40;109781;1250;71587;-68
2022/04/30 05:12:50;;;;;;;;;;;;;;;11.27;69.68;98057.14;109729;1250;67828;-68
2022/04/30 05:15:19;;;;;;;;;;;;;;;11.36;69.18;98051.63;109716;1250;68639;-69
2022/04/30 05:17:48;;;;;;;;;;;;;;;11.17;68.65;98052.70;109771;1250;59629;-69
2022/04/30 05:20:17;;;;;;;;;;;;;;;11.54;68.43;98051.66;109828;1250;59693;-69
2022/04/30 05:23:06;;;;;;;;;;;;;;;11.81;68.22;98053.01;109794;1250;71058;-67
2022/04/30 05:25:37;;;;;;;;;;;;;;;12.18;69.65;98054.48;109776;1250;67810;-68
2022/04/30 05:28:07;;;;;;;;;;;;;;;12.61;68.69;98051.00;109704;1250;69244;-67
2022/04/30 05:30:37;;;;;;;;;;;;;;;13.16;72.50;98054.58;109783;1249;59790;-68
2022/04/30 05:33:05;;;;;;;;;;;;;;;13.56;67.28;98057.27;109639;1251;59708;-68
2022/04/30 05:35:35;;;;;;;;;;;;;;;13.73;65.18;98058.23;109839;1250;70781;-68
2022/04/30 05:38:04;;;;;;;;;;;;;;;13.96;64.82;98058.91;109667;1250;68786;-68
2022/04/30 05:40:33;;;;;;;;;;;;;;;14.08;61.08;98056.77;109773;1250;67724;-69
2022/04/30 05:43:03;;;;;;;;;;;;;;;14.29;59.90;98053.41;109688;1250;60120;-69
2022/04/30 05:45:32;;;;;;;;;;;;;;;14.43;58.92;98052.71;109796;1250;59706;-70
2022/04/30 05:48:01;;;;;;;;;;;;;;;14.70;61.38;98052.84;109786;1250;71603;-69
2022/04/30 05:50:31;;;;;;;;;;;;;;;15.03;61.34;98052.48;109774;1250;67775;-68
2022/04/30 05:53:00;;;;;;;;;;;;;;;15.21;53.65;98053.46;109813;1250;68675;-71
2022/04/30 05:55:29;;;;;;;;;;;;;;;15.25;51.84;98056.49;109763;1250;59770;-69
2022/04/30 05:57:59;;;;;;;;;;;;;;;15.39;51.27;98059.23;109696;1250;59726;-69
2022/04/30 06:00:29;;;;;;;;;;;;;;;15.08;50.62;98057.73;109850;1250;71506;-67
2022/04/30 06:02:58;;;;;;;;;;;;;;;15.07;50.17;98058.88;109813;1250;67964;-68
2022/04/30 06:05:28;;;;;;;;;;;;;;;14.88;49.91;98058.83;109865;1250;68720;-68
2022/04/30 06:08:05;;;;;;;;;;;;;;;15.21;49.69;98058.76;109861;1250;59765;-69
2022/04/30 06:10:40;;;;;;;;;;;;;;;15.40;50.15;98064.92;109795;1250;59643;-69
2022/04/30 06:13:10;;;;;;;;;;;;;;;15.65;50.35;98064.10;109778;1250;71621;-68
2022/04/30 06:15:39;;;;;;;;;;;;;;;15.89;50.31;98066.52;109898;1250;67796;-69
2022/04/30 06:18:08;;;;;;;;;;;;;;;16.31;49.17;98065.22;109798;1250;68661;-67
2022/04/30 06:20:37;;;;;;;;;;;;;;;15.78;48.13;98064.80;109852;1250;59773;-69
2022/04/30 06:23:06;;;;;;;;;;;;;;;15.93;47.95;98068.50;109857;1250;59693;-65
2022/04/30 06:25:36;;;;;;;;;;;;;;;16.27;47.55;98064.02;109679;1251;71395;-69
2022/04/30 06:28:06;;;;;;;;;;;;;;;16.51;47.01;98063.98;109846;1251;68603;-68
2022/04/30 06:30:35;;;;;;;;;;;;;;;16.61;46.25;98062.46;109757;1251;68643;-67
2022/04/30 06:33:04;;;;;;;;;;;;;;;16.77;46.39;98062.45;109809;1250;60119;-67
2022/04/30 06:35:33;;;;;;;;;;;;;;;16.95;45.95;98055.80;109588;1251;59732;-68
2022/04/30 06:38:03;;;;;;;;;;;;;;;17.32;45.05;98060.39;109710;1250;70798;-69
2022/04/30 06:40:31;;;;;;;;;;;;;;;17.60;43.21;98059.48;109663;1253;68046;-70
2022/04/30 06:43:02;;;;;;;;;;;;;;;17.89;41.41;98059.81;109711;1251;68491;-70
2022/04/30 06:45:32;;;;;;;;;;;;;;;17.59;41.19;98059.23;109599;1253;59758;-70
2022/04/30 06:48:01;;;;;;;;;;;;;;;17.49;41.83;98062.20;109717;1250;60494;-69
2022/04/30 06:50:30;;;;;;;;;;;;;;;17.49;42.93;98062.02;109618;1252;70958;-68
2022/04/30 06:58:41;;;;;;;;;;;;;;;16.52;42.30;98053.42;109613;1253;59696;-66
2022/04/30 07:01:40;;;;;;;;;;;;;;;16.48;43.80;98057.93;109723;1250;59686;-67
2022/04/30 07:04:10;;;;;;;;;;;;;;;16.07;45.21;98053.93;109479;1254;70890;-69
2022/04/30 07:06:40;;;;;;;;;;;;;;;15.76;45.81;98054.29;109457;1253;67983;-69
2022/04/30 07:09:09;;;;;;;;;;;;;;;16.22;45.18;98055.46;109512;1253;68900;-69
2022/04/30 07:11:38;;;;;;;;;;;;;;;16.26;44.69;98057.74;109749;1251;60021;-71
2022/04/30 07:14:06;;;;;;;;;;;;;;;16.18;43.94;98053.84;109936;1251;59644;-66
2022/04/30 07:16:35;;;;;;;;;;;;;;;16.44;44.05;98051.11;109764;1250;70876;-67
2022/04/30 07:19:05;;;;;;;;;;;;;;;16.52;43.66;98048.30;109733;1251;68410;-68
2022/04/30 07:21:34;;;;;;;;;;;;;;;16.60;43.07;98054.29;109618;1253;69546;-65
2022/04/30 07:24:07;;;;;;;;;;;;;;;16.77;43.24;98050.39;109660;1253;59729;-68
2022/04/30 07:26:35;;;;;;;;;;;;;;;16.96;42.59;98051.27;109495;1254;59691;-69
2022/04/30 07:29:04;;;;;;;;;;;;;;;17.10;42.08;98050.60;109626;1250;71506;-68
2022/04/30 07:31:33;;;;;;;;;;;;;;;17.17;42.49;98049.77;109918;1250;68007;-71
2022/04/30 07:34:03;;;;;;;;;;;;;;;17.67;42.59;98051.46;109685;1254;68541;-69
2022/04/30 07:36:32;;;;;;;;;;;;;;;18.16;41.02;98047.08;109789;1251;59780;-65
2022/04/30 07:39:00;;;;;;;;;;;;;;;18.46;41.09;98044.98;109979;1251;59720;-66
2022/04/30 07:41:29;;;;;;;;;;;;;;;18.83;39.24;98040.70;109653;1253;70819;-65
2022/04/30 07:43:59;;;;;;;;;;;;;;;19.06;38.69;98044.10;109752;1250;68406;-68
2022/04/30 07:46:28;;;;;;;;;;;;;;;18.71;38.45;98043.39;109780;1251;70038;-67
2022/04/30 07:48:57;;;;;;;;;;;;;;;18.55;39.09;98046.20;109808;1251;59754;-69
2022/04/30 07:51:42;;;;;;;;;;;;;;;18.65;38.64;98040.83;109700;1253;59631;-69
2022/04/30 07:54:12;;;;;;;;;;;;;;;18.75;38.98;98040.44;109838;1251;70803;-65
2022/04/30 07:56:40;;;;;;;;;;;;;;;18.87;38.70;98034.64;109810;1248;67830;-68
2022/04/30 07:59:09;;;;;;;;;;;;;;;19.44;39.49;98039.50;109775;1250;68699;-66
2022/04/30 08:01:39;;;;;;;;;;;;;;;20.05;37.80;98041.17;109703;1251;59681;-68
2022/04/30 08:04:08;;;;;;;;;;;;;;;20.56;37.31;98039.33;109928;1251;59695;-68
2022/04/30 08:06:37;;;;;;;;;;;;;;;21.00;35.63;98033.63;109862;1250;70025;-69
2022/04/30 08:09:06;;;;;;;;;;;;;;;20.29;34.99;98033.61;109790;1251;68439;-68
2022/04/30 08:11:35;;;;;;;;;;;;;;;20.58;35.13;98030.79;109851;1250;69465;-68
2022/04/30 08:14:04;;;;;;;;;;;;;;;20.73;35.91;98025.98;109912;1250;59726;-67
2022/04/30 08:16:33;;;;;;;;;;;;;;;20.94;35.58;98022.77;109825;1251;59713;-67
2022/04/30 08:19:02;;;;;;;;;;;;;;;21.15;34.94;98024.55;109839;1251;70841;-68
2022/04/30 08:21:31;;;;;;;;;;;;;;;20.76;35.14;98016.52;109629;1251;67975;-68
2022/04/30 08:24:01;;;;;;;;;;;;;;;20.81;34.63;98012.27;109654;1251;68314;-67
2022/04/30 08:26:30;;;;;;;;;;;;;;;20.40;35.37;98014.09;109840;1251;59751;-70
2022/04/30 08:28:59;;;;;;;;;;;;;;;20.88;35.17;98015.09;109981;1250;59105;-69
2022/04/30 08:31:27;;;;;;;;;;;;;;;21.51;34.59;98014.21;109930;1251;70898;-68
2022/04/30 08:33:56;;;;;;;;;;;;;;;21.24;33.17;98013.57;109829;1251;67819;-69
2022/04/30 08:36:25;;;;;;;;;;;;;;;20.74;34.43;98006.64;109795;1251;68665;-68
2022/04/30 08:38:54;;;;;;;;;;;;;;;20.63;34.49;98004.63;109844;1250;59728;-68
2022/04/30 08:41:23;;;;;;;;;;;;;;;20.27;35.36;98007.58;109792;1249;59715;-70
2022/04/30 08:43:53;;;;;;;;;;;;;;;20.11;35.92;98005.40;109834;1251;72339;-69
2022/04/30 08:46:22;;;;;;;;;;;;;;;20.49;35.54;97999.33;109787;1251;68131;-71
2022/04/30 08:48:51;;;;;;;;;;;;;;;20.73;35.57;97998.70;109909;1251;69498;-71
2022/04/30 08:51:20;;;;;;;;;;;;;;;20.20;34.48;97994.50;109712;1251;59720;-69
2022/04/30 08:53:48;;;;;;;;;;;;;;;20.90;34.25;97996.92;109828;1251;59699;-68
2022/04/30 08:56:17;;;;;;;;;;;;;;;21.36;34.79;97994.59;109816;1250;70754;-69
2022/04/30 08:58:47;;;;;;;;;;;;;;;21.70;32.83;97992.44;109736;1251;67877;-68
2022/04/30 09:01:17;;;;;;;;;;;;;;;21.38;33.67;97992.52;109783;1250;69453;-69
2022/04/30 09:03:47;;;;;;;;;;;;;;;21.61;33.11;97990.65;109761;1250;59708;-70
2022/04/30 09:06:17;;;;;;;;;;;;;;;21.69;31.80;97989.45;109500;1250;454225;-69
2022/04/30 09:08:49;;;;;;;;;;;;;;;22.22;31.53;97983.80;110018;1251;71591;-67
2022/04/30 09:11:28;;;;;;;;;;;;;;;23.05;30.63;97978.67;110009;1250;67847;-70
2022/04/30 09:13:57;;;;;;;;;;;;;;;22.97;30.32;97980.20;109826;1250;68775;-68
2022/04/30 09:16:26;;;;;;;;;;;;;;;22.94;29.66;97979.14;109892;1249;59683;-70
2022/04/30 09:19:01;;;;;;;;;;;;;;;22.84;30.06;97980.59;109817;1251;59684;-70
2022/04/30 09:21:30;;;;;;;;;;;;;;;23.13;29.43;97973.32;110016;1250;71657;-68
2022/04/30 09:24:03;;;;;;;;;;;;;;;22.89;29.51;97973.66;109923;1251;68651;-70
2022/04/30 09:26:41;;;;;;;;;;;;;;;22.41;29.69;97963.96;109847;1251;68866;-70
2022/04/30 09:29:20;;;;;;;;;;;;;;;22.86;29.88;97959.98;109929;1251;59779;-68
2022/04/30 09:31:50;;;;;;;;;;;;;;;22.36;30.77;97958.55;109985;1251;59707;-70
2022/04/30 09:39:56;;;;;;;;;;;;;;;22.75;30.15;97955.02;109862;1251;69710;-70
2022/04/30 09:42:25;;;;;;;;;;;;;;;23.45;29.80;97952.08;109809;1250;60160;-70
2022/04/30 09:44:55;;;;;;;;;;;;;;;23.92;28.38;97950.63;109867;1250;59697;-70
2022/04/30 09:47:25;;;;;;;;;;;;;;;24.50;27.75;97944.78;109863;1251;71535;-69
2022/04/30 09:55:29;;;;;;;;;;;;;;;25.27;27.16;97934.83;109828;1252;59747;-71
2022/04/30 09:58:00;;;;;;;;;;;;;;;25.33;26.31;97933.84;109776;1251;59703;-69
2022/04/30 10:00:33;;;;;;;;;;;;;;;25.75;26.98;97934.02;109904;1251;70792;-69
2022/04/30 10:03:02;;;;;;;;;;;;;;;25.80;26.58;97927.92;109954;1251;67833;-71
2022/04/30 10:05:35;;;;;;;;;;;;;;;25.59;26.64;97928.27;109968;1251;68653;-72
2022/04/30 10:08:05;;;;;;;;;;;;;;;25.55;26.05;97925.99;109991;1250;59763;-69
2022/04/30 10:10:41;;;;;;;;;;;;;;;24.80;25.28;97917.13;110016;1250;59767;-68
2022/04/30 10:13:17;;;;;;;;;;;;;;;26.09;25.35;97912.06;109808;1251;71427;-68
2022/04/30 10:15:57;;;;;;;;;;;;;;;26.78;24.45;97905.45;109693;1251;67808;-69
2022/04/30 10:18:35;;;;;;;;;;;;;;;27.11;23.94;97900.81;109960;1251;68720;-67
2022/04/30 10:21:06;;;;;;;;;;;;;;;27.66;23.62;97903.00;109947;1251;59700;-69
2022/04/30 10:23:35;;;;;;;;;;;;;;;27.18;22.91;97897.69;110019;1251;59719;-71
2022/04/30 10:26:07;;;;;;;;;;;;;;;27.27;23.07;97896.59;110008;1251;71611;-68
2022/04/30 10:28:36;;;;;;;;;;;;;;;27.07;22.90;97896.89;110028;1251;68411;-68
2022/04/30 10:31:06;;;;;;;;;;;;;;;26.38;24.21;97898.07;109728;1251;68703;-69
2022/04/30 10:33:45;;;;;;;;;;;;;;;26.64;25.28;97899.81;109871;1251;59709;-69
2022/04/30 10:36:20;;;;;;;;;;;;;;;26.71;24.53;97900.27;109839;1250;59694;-70
2022/04/30 10:38:59;;;;;;;;;;;;;;;26.70;24.17;97900.73;109895;1251;70895;-70
2022/04/30 10:41:28;;;;;;;;;;;;;;;27.05;23.49;97896.44;109931;1250;68616;-69
2022/04/30 10:44:02;;;;;;;;;;;;;;;27.17;22.67;97891.83;109711;1250;69341;-69
2022/04/30 10:46:37;;;;;;;;;;;;;;;27.10;22.51;97886.46;109952;1250;59772;-69
2022/04/30 10:49:06;;;;;;;;;;;;;;;27.42;22.79;97884.70;109903;1250;59693;-70
2022/04/30 10:51:41;;;;;;;;;;;;;;;27.15;22.92;97880.84;109767;1250;70882;-71
2022/04/30 10:54:10;;;;;;;;;;;;;;;27.73;23.41;97878.84;109831;1251;68597;-70
2022/04/30 10:56:40;;;;;;;;;;;;;;;28.39;22.04;97873.64;109864;1250;69251;-69
2022/04/30 10:59:08;;;;;;;;;;;;;;;28.01;21.38;97872.42;109730;1250;59819;-70
2022/04/30 11:01:47;;;;;;;;;;;;;;;27.92;21.27;97871.60;109744;1251;59711;-69
2022/04/30 11:04:17;;;;;;;;;;;;;;;27.33;22.15;97867.48;109947;1250;71539;-69
2022/04/30 11:06:52;;;;;;;;;;;;;;;27.93;22.17;97863.95;109812;1251;68398;-70
2022/04/30 11:09:22;;;;;;;;;;;;;;;27.78;21.23;97860.86;109800;1251;69519;-68
2022/04/30 11:11:51;;;;;;;;;;;;;;;27.51;20.91;97854.88;109919;1249;59865;-70
2022/04/30 11:14:20;;;;;;;;;;;;;;;27.95;20.95;97857.88;109668;1251;59807;-70
2022/04/30 11:16:52;;;;;;;;;;;;;;;27.74;20.18;97852.55;109715;1252;71103;-70
2022/04/30 11:19:23;;;;;;;;;;;;;;;27.72;20.54;97849.98;109758;1251;68551;-70
2022/04/30 11:21:53;;;;;;;;;;;;;;;27.42;20.29;97846.30;109658;1253;67980;-65
2022/04/30 11:24:28;;;;;;;;;;;;;;;27.30;20.74;97849.20;109786;1251;59846;-66
2022/04/30 11:27:03;;;;;;;;;;;;;;;27.22;20.61;97839.79;109841;1251;59706;-66
2022/04/30 11:29:32;;;;;;;;;;;;;;;27.08;20.69;97833.59;109840;1251;70814;-68
2022/04/30 11:32:02;;;;;;;;;;;;;;;27.10;20.77;97833.16;109784;1251;68875;-69
2022/04/30 11:34:31;;;;;;;;;;;;;;;26.70;21.25;97830.49;109763;1251;69408;-70
2022/04/30 11:37:03;;;;;;;;;;;;;;;26.41;23.20;97826.52;109925;1251;59757;-69
2022/04/30 11:39:34;;;;;;;;;;;;;;;26.62;22.42;97826.05;109595;1251;59707;-70
2022/04/30 11:42:05;;;;;;;;;;;;;;;27.08;21.28;97822.27;109685;1251;71233;-70
2022/04/30 11:44:35;;;;;;;;;;;;;;;27.22;20.82;97821.63;109856;1251;67574;-71
2022/04/30 11:47:09;;;;;;;;;;;;;;;27.01;21.36;97810.11;109905;1250;68642;-70
2022/04/30 11:49:38;;;;;;;;;;;;;;;26.53;21.43;97807.55;109955;1251;59725;-69
2022/04/30 11:52:09;;;;;;;;;;;;;;;26.46;21.80;97805.70;109986;1250;59704;-69
2022/04/30 11:54:40;;;;;;;;;;;;;;;26.28;22.46;97800.92;109568;1251;72682;-70
2022/04/30 11:57:13;;;;;;;;;;;;;;;26.56;21.99;97800.35;109728;1251;68455;-70
2022/04/30 11:59:43;;;;;;;;;;;;;;;26.11;22.72;97794.99;109821;1251;68647;-70
2022/04/30 12:02:14;;;;;;;;;;;;;;;24.80;24.35;97791.83;109935;1251;59789;-70
2022/04/30 12:04:45;;;;;;;;;;;;;;;24.91;26.38;97795.81;109620;1251;59769;-71
2022/04/30 12:07:14;;;;;;;;;;;;;;;25.44;25.28;97786.26;109833;1251;70901;-70
2022/04/30 12:09:50;;;;;;;;;;;;;;;25.81;24.29;97783.63;109909;1251;67795;-70
2022/04/30 12:12:23;;;;;;;;;;;;;;;25.70;24.13;97783.61;109862;1251;69318;-73
2022/04/30 12:14:56;;;;;;;;;;;;;;;25.27;24.43;97782.88;109776;1251;59773;-72
2022/04/30 12:17:36;;;;;;;;;;;;;;;24.78;24.82;97781.14;109853;1251;59682;-73
2022/04/30 12:26:00;;;;;;;;;;;;;;;23.45;26.66;97770.31;109880;1251;70050;-67
2022/04/30 12:28:30;;;;;;;;;;;;;;;23.19;26.89;97769.20;109962;1251;59768;-70
2022/04/30 12:30:58;;;;;;;;;;;;;;;22.59;27.12;97768.87;109888;1250;59759;-69
2022/04/30 12:33:28;;;;;;;;;;;;;;;22.04;27.88;97762.42;109916;1250;71542;-69
2022/04/30 12:35:58;;;;;;;;;;;;;;;21.70;28.84;97763.11;109881;1249;68840;-70
2022/04/30 12:38:31;;;;;;;;;;;;;;;21.38;30.36;97759.66;109916;1251;68989;-70
2022/04/30 12:41:01;;;;;;;;;;;;;;;21.05;30.16;97761.64;109594;1251;59710;-69
2022/04/30 12:43:33;;;;;;;;;;;;;;;20.80;30.48;97764.53;109662;1251;59786;-69
2022/04/30 12:46:04;;;;;;;;;;;;;;;20.70;29.87;97757.90;109869;1251;71492;-70
2022/04/30 12:48:33;;;;;;;;;;;;;;;20.44;29.77;97761.61;109629;1254;66689;-70
2022/04/30 12:51:05;;;;;;;;;;;;;;;20.44;29.61;97760.84;109700;1253;69319;-69
2022/04/30 12:53:34;;;;;;;;;;;;;;;20.23;30.42;97756.16;109768;1251;59709;-69
2022/04/30 12:56:04;;;;;;;;;;;;;;;20.11;30.28;97756.54;109907;1251;59686;-69
2022/04/30 12:58:34;;;;;;;;;;;;;;;19.87;31.93;97756.69;109534;1253;71546;-67
2022/04/30 13:01:03;;;;;;;;;;;;;;;19.67;33.04;97753.09;109603;1251;67837;-69
2022/04/30 13:03:32;;;;;;;;;;;;;;;19.65;33.34;97758.50;109797;1250;67501;-69
2022/04/30 13:06:02;;;;;;;;;;;;;;;19.54;33.01;97752.34;109735;1251;59744;-69
2022/04/30 13:14:05;;;;;;;;;;;;;;;19.38;33.50;97746.56;109671;1251;67938;-69
2022/04/30 13:16:34;;;;;;;;;;;;;;;19.48;32.86;97749.29;109669;1250;68298;-69
2022/04/30 13:19:04;;;;;;;;;;;;;;;19.43;33.24;97745.05;109868;1250;59705;-69
2022/04/30 13:21:33;;;;;;;;;;;;;;;19.50;33.02;97747.67;109824;1249;59697;-68
2022/04/30 13:24:02;;;;;;;;;;;;;;;19.51;32.71;97748.20;109744;1250;71861;-68
2022/04/30 13:26:31;;;;;;;;;;;;;;;19.33;31.84;97742.17;109552;1251;67831;-69
2022/04/30 13:29:00;;;;;;;;;;;;;;;19.27;32.45;97740.75;109508;1252;68752;-69
2022/04/30 13:31:29;;;;;;;;;;;;;;;19.12;32.47;97739.00;109684;1251;59814;-71
2022/04/30 13:33:58;;;;;;;;;;;;;;;18.93;32.49;97740.98;109676;1251;59763;-69
2022/04/30 13:36:28;;;;;;;;;;;;;;;18.81;32.87;97740.07;109614;1253;69777;-70
2022/04/30 13:38:58;;;;;;;;;;;;;;;18.68;33.23;97737.11;109892;1249;68647;-71
2022/04/30 13:41:28;;;;;;;;;;;;;;;18.63;33.65;97738.69;109739;1251;69442;-68
2022/04/30 13:43:57;;;;;;;;;;;;;;;18.54;33.86;97735.68;109689;1252;59724;-70
2022/04/30 13:46:26;;;;;;;;;;;;;;;18.46;34.28;97738.42;109902;1251;59760;-69
2022/04/30 13:48:56;;;;;;;;;;;;;;;18.48;34.06;97738.21;109674;1251;70857;-69
2022/04/30 13:51:25;;;;;;;;;;;;;;;18.46;33.96;97732.77;109676;1251;68350;-65
2022/04/30 13:53:54;;;;;;;;;;;;;;;18.41;34.18;97735.44;109792;1251;68747;-66